Lincoln, Montana
Current Conditions -  °F | °C
As of 7:53 PM on Tuesday 25 Nov 2014 (Local Time) from KHLN Reporting Station
Light Snow Light Snow  
Wind Chill: 33°   Ceiling: 3300
Heat Index: 33°   Visibility: 3mi
Dew Point: 31°   Wind: 3mph
Humidity: 92%   Direction: 280°W
Pressure: 30.14"   Gusts: NA
Location:  46.95°N, 112.68°W
Report Text: KHLN 260253Z 28003KT 3SM -SN BR OVC033 01/M01 A3014 RMK AO2 SNB02 SLP250 P0000 60004 T00061006 53001
Loading
Personal Weather Stations






























Interactive Weather Map New forecast layout! Learn more

10-Day Weather Forecast

Advertisements
Track Severe Weather on mobile